createdAt,value
2022-09-06T00:01:45.997Z,25.66
2022-09-06T00:04:15.402Z,25.34
2022-09-06T00:06:42.069Z,25.22
2022-09-06T00:09:08.453Z,25.18
2022-09-06T00:11:34.845Z,25.14
2022-09-06T00:14:01.240Z,24.96
2022-09-06T00:16:30.410Z,24.80
2022-09-06T00:18:57.091Z,24.63
2022-09-06T00:21:23.577Z,24.69
2022-09-06T00:23:49.969Z,24.50
2022-09-06T00:26:16.392Z,24.54
2022-09-06T00:28:42.777Z,24.62
2022-09-06T00:31:09.293Z,24.87
2022-09-06T00:33:35.820Z,24.92
2022-09-06T00:36:02.233Z,24.91
2022-09-06T00:38:28.726Z,24.62
2022-09-06T00:40:55.191Z,24.69
2022-09-06T00:43:21.574Z,24.88
2022-09-06T00:45:47.952Z,24.98
2022-09-06T00:48:14.340Z,25.03
2022-09-06T00:50:40.712Z,25.06
2022-09-06T00:53:07.118Z,25.15
2022-09-06T00:55:33.511Z,25.26
2022-09-06T00:57:59.904Z,25.10
2022-09-06T01:00:26.282Z,25.11
2022-09-06T01:02:52.744Z,25.12
2022-09-06T01:05:19.183Z,24.96
2022-09-06T01:07:45.584Z,25.01
2022-09-06T01:10:11.972Z,24.98
2022-09-06T01:12:38.359Z,25.02
2022-09-06T01:15:04.760Z,25.11
2022-09-06T01:17:31.161Z,25.16
2022-09-06T01:19:57.539Z,25.31
2022-09-06T01:22:23.926Z,25.21
2022-09-06T01:24:50.294Z,25.16
2022-09-06T01:27:16.735Z,25.18
2022-09-06T01:29:43.135Z,25.12
2022-09-06T01:32:09.546Z,25.14
2022-09-06T01:34:35.915Z,25.13
2022-09-06T01:37:10.845Z,25.13
2022-09-06T01:39:37.532Z,24.99
2022-09-06T01:42:04.037Z,24.85
2022-09-06T01:44:30.467Z,24.85
2022-09-06T01:46:56.846Z,24.90
2022-09-06T01:49:23.243Z,24.83
2022-09-06T01:51:49.646Z,24.71
2022-09-06T01:54:16.092Z,24.59
2022-09-06T01:56:42.486Z,24.52
2022-09-06T01:59:08.886Z,24.66
2022-09-06T02:01:35.308Z,24.49
2022-09-06T02:04:01.817Z,24.70
2022-09-06T02:06:28.210Z,24.71
2022-09-06T02:08:54.598Z,24.70
2022-09-06T02:11:20.995Z,24.76
2022-09-06T02:13:47.378Z,24.65
2022-09-06T02:16:13.750Z,24.69
2022-09-06T02:18:40.161Z,24.76
2022-09-06T02:21:06.646Z,24.87
2022-09-06T02:23:33.054Z,24.98
2022-09-06T02:25:59.451Z,24.99
2022-09-06T02:28:25.845Z,25.04
2022-09-06T02:30:52.399Z,24.89
2022-09-06T02:33:18.886Z,24.97
2022-09-06T02:35:45.288Z,24.98
2022-09-06T02:38:11.684Z,25.06
2022-09-06T02:40:38.084Z,24.93
2022-09-06T02:43:04.492Z,24.89
2022-09-06T02:45:30.875Z,24.87
2022-09-06T02:47:57.294Z,24.97
2022-09-06T02:50:23.668Z,24.85
2022-09-06T02:52:50.058Z,24.83
2022-09-06T02:55:16.440Z,24.74
2022-09-06T02:57:42.836Z,24.72
2022-09-06T03:00:09.237Z,24.60
2022-09-06T03:02:35.689Z,24.54
2022-09-06T03:05:02.132Z,24.52
2022-09-06T03:07:28.552Z,24.52
2022-09-06T03:09:54.954Z,24.57
2022-09-06T03:12:21.385Z,24.61
2022-09-06T03:14:50.106Z,24.62
2022-09-06T03:17:18.331Z,24.60
2022-09-06T03:19:44.725Z,24.57
2022-09-06T03:22:11.137Z,24.57
2022-09-06T03:24:37.543Z,24.59
2022-09-06T03:27:03.938Z,24.58
2022-09-06T03:29:30.334Z,24.59
2022-09-06T03:31:56.740Z,24.59
2022-09-06T03:34:23.142Z,24.61
2022-09-06T03:36:49.521Z,24.68
2022-09-06T03:39:15.898Z,24.77
2022-09-06T03:41:42.319Z,24.74
2022-09-06T03:44:08.744Z,24.68
2022-09-06T03:46:35.131Z,24.65
2022-09-06T03:49:01.593Z,24.68
2022-09-06T03:51:27.989Z,24.75
2022-09-06T03:53:54.383Z,24.76
2022-09-06T03:56:20.780Z,24.75
2022-09-06T03:58:47.194Z,24.73
2022-09-06T04:01:13.662Z,24.63
2022-09-06T04:03:40.120Z,24.54
2022-09-06T04:06:06.533Z,24.52
2022-09-06T04:08:32.928Z,24.42
2022-09-06T04:10:59.427Z,24.34
2022-09-06T04:13:25.886Z,24.27
2022-09-06T04:15:52.321Z,24.37
2022-09-06T04:18:18.727Z,24.48
2022-09-06T04:20:45.121Z,24.57
2022-09-06T04:23:11.542Z,24.62
2022-09-06T04:25:38.141Z,24.60
2022-09-06T04:28:04.545Z,24.61
2022-09-06T04:30:30.946Z,24.45
2022-09-06T04:32:57.357Z,24.14
2022-09-06T04:35:23.736Z,24.29
2022-09-06T04:37:50.127Z,24.35
2022-09-06T04:40:16.511Z,24.29
2022-09-06T04:42:42.933Z,24.38
2022-09-06T04:45:09.358Z,24.51
2022-09-06T04:47:35.743Z,24.34
2022-09-06T04:50:02.134Z,24.23
2022-09-06T04:52:30.362Z,24.23
2022-09-06T04:54:56.860Z,23.80
2022-09-06T04:57:23.295Z,23.94
2022-09-06T04:59:49.688Z,23.84
2022-09-06T05:02:16.140Z,23.45
2022-09-06T05:04:42.629Z,23.22
2022-09-06T05:07:09.032Z,23.18
2022-09-06T05:09:35.455Z,23.06
2022-09-06T05:12:01.846Z,23.25
2022-09-06T05:14:28.235Z,23.34
2022-09-06T05:16:54.682Z,23.50
2022-09-06T05:19:21.130Z,23.74
2022-09-06T05:21:47.504Z,23.79
2022-09-06T05:24:13.901Z,23.91
2022-09-06T05:26:40.384Z,24.13
2022-09-06T05:29:06.784Z,24.19
2022-09-06T05:31:33.365Z,24.27
2022-09-06T05:33:59.796Z,24.37
2022-09-06T05:36:26.195Z,24.29
2022-09-06T05:38:52.578Z,24.25
2022-09-06T05:41:19.091Z,24.11
2022-09-06T05:43:45.554Z,23.97
2022-09-06T05:46:12.020Z,24.09
2022-09-06T05:48:38.648Z,24.18
2022-09-06T05:51:05.188Z,24.30
2022-09-06T05:53:31.578Z,24.12
2022-09-06T05:55:57.979Z,24.01
2022-09-06T05:58:24.352Z,24.03
2022-09-06T06:00:50.805Z,23.99
2022-09-06T06:03:17.269Z,24.05
2022-09-06T06:05:43.664Z,23.94
2022-09-06T06:08:10.049Z,24.15
2022-09-06T06:10:38.643Z,24.33
2022-09-06T06:13:05.247Z,24.40
2022-09-06T06:15:31.661Z,24.51
2022-09-06T06:17:58.049Z,24.67
2022-09-06T06:20:24.563Z,24.78
2022-09-06T06:22:50.947Z,24.80
2022-09-06T06:25:17.345Z,24.79
2022-09-06T06:27:43.748Z,24.83
2022-09-06T06:30:10.135Z,24.90
2022-09-06T06:32:36.542Z,24.94
2022-09-06T06:35:02.934Z,24.90
2022-09-06T06:37:29.321Z,24.66
2022-09-06T06:39:55.838Z,24.18
2022-09-06T06:42:22.286Z,24.07
2022-09-06T06:44:48.693Z,24.23
2022-09-06T06:47:15.104Z,24.42
2022-09-06T06:49:41.514Z,24.25
2022-09-06T06:52:07.904Z,24.09
2022-09-06T06:54:34.320Z,23.86
2022-09-06T06:57:00.715Z,24.09
2022-09-06T06:59:27.106Z,24.16
2022-09-06T07:01:53.690Z,24.33
2022-09-06T07:04:20.503Z,24.40
2022-09-06T07:12:19.747Z,24.62
2022-09-06T07:14:46.150Z,24.87
2022-09-06T07:17:12.561Z,24.75
2022-09-06T07:22:25.430Z,24.47
2022-09-06T07:24:51.822Z,24.45
2022-09-06T07:30:04.691Z,24.54
2022-09-06T07:32:31.108Z,24.42
2022-09-06T07:34:57.616Z,23.97
2022-09-06T07:37:24.058Z,24.02
2022-09-06T07:39:50.471Z,23.76
2022-09-06T07:42:16.908Z,23.21
2022-09-06T07:44:43.294Z,23.09
2022-09-06T07:55:28.915Z,22.41
2022-09-06T07:57:55.312Z,22.56
2022-09-06T08:00:21.692Z,22.50
2022-09-06T08:02:48.109Z,22.61
2022-09-06T08:10:47.287Z,22.10
2022-09-06T08:13:13.705Z,22.06
2022-09-06T08:15:41.711Z,22.07
2022-09-06T08:18:08.143Z,21.74
2022-09-06T08:20:34.522Z,21.59
2022-09-06T08:23:00.938Z,21.27
2022-09-06T08:25:27.532Z,21.11
2022-09-06T08:27:53.899Z,21.09
2022-09-06T08:30:20.362Z,20.66
2022-09-06T08:32:46.816Z,20.94
2022-09-06T08:35:13.198Z,21.38
2022-09-06T08:37:39.602Z,22.04
2022-09-06T08:40:06.073Z,22.44
2022-09-06T08:42:32.524Z,22.68
2022-09-06T08:44:58.993Z,22.69
2022-09-06T08:47:25.448Z,22.46
2022-09-06T08:49:51.886Z,21.59
2022-09-06T08:52:18.326Z,22.03
2022-09-06T08:54:44.746Z,22.33
2022-09-06T08:57:11.141Z,22.61
2022-09-06T08:59:37.533Z,22.85
2022-09-06T09:02:03.973Z,22.90
2022-09-06T09:04:30.415Z,23.08
2022-09-06T09:06:56.817Z,23.24
2022-09-06T09:09:23.204Z,23.33
2022-09-06T09:11:49.668Z,23.48
2022-09-06T09:14:16.082Z,23.42
2022-09-06T09:16:42.526Z,23.28
2022-09-06T09:19:09.134Z,23.48
2022-09-06T09:21:35.532Z,23.59
2022-09-06T09:24:01.905Z,23.62
2022-09-06T09:26:28.302Z,23.56
2022-09-06T09:28:54.698Z,23.59
2022-09-06T09:31:21.240Z,23.74
2022-09-06T09:33:47.643Z,23.84
2022-09-06T09:36:14.039Z,23.92
2022-09-06T09:38:40.457Z,23.88
2022-09-06T09:41:06.847Z,23.65
2022-09-06T09:43:33.293Z,23.57
2022-09-06T09:45:59.693Z,23.64
2022-09-06T09:48:26.137Z,23.56
2022-09-06T09:50:52.636Z,23.71
2022-09-06T09:53:19.044Z,23.95
2022-09-06T09:55:45.452Z,24.11
2022-09-06T09:58:11.832Z,24.22
2022-09-06T10:00:38.444Z,24.31
2022-09-06T10:03:04.893Z,24.53
2022-09-06T10:05:31.360Z,24.67
2022-09-06T10:07:57.766Z,25.06
2022-09-06T10:10:24.149Z,25.04
2022-09-06T10:12:50.585Z,24.90
2022-09-06T10:15:16.979Z,25.09
2022-09-06T10:17:43.418Z,25.23
2022-09-06T10:20:09.801Z,25.21
2022-09-06T10:22:36.253Z,25.39
2022-09-06T10:25:02.646Z,25.55
2022-09-06T10:27:29.068Z,25.57
2022-09-06T10:29:55.468Z,25.54
2022-09-06T10:32:21.841Z,25.68
2022-09-06T10:34:48.258Z,25.40
2022-09-06T10:37:14.652Z,25.37
2022-09-06T10:39:41.092Z,25.22
2022-09-06T10:42:07.514Z,25.18
2022-09-06T10:44:33.926Z,25.93
2022-09-06T10:47:00.343Z,25.62
2022-09-06T10:49:26.752Z,25.42
2022-09-06T10:51:53.195Z,24.61
2022-09-06T10:54:19.580Z,24.82
2022-09-06T10:56:45.979Z,25.52
2022-09-06T11:01:58.883Z,26.18
2022-09-06T11:04:25.354Z,26.22
2022-09-06T11:06:51.777Z,26.34
2022-09-06T11:09:18.179Z,26.55
2022-09-06T11:11:44.603Z,26.09
2022-09-06T11:14:10.981Z,25.56
2022-09-06T11:16:37.400Z,25.78
2022-09-06T11:19:03.842Z,25.76
2022-09-06T11:21:30.233Z,26.03
2022-09-06T11:23:56.633Z,26.28
2022-09-06T11:26:23.050Z,25.74
2022-09-06T11:28:49.455Z,25.90
2022-09-06T11:34:02.231Z,26.75
2022-09-06T11:36:28.617Z,26.90
2022-09-06T11:38:55.268Z,27.31
2022-09-06T11:41:21.664Z,27.00
2022-09-06T11:43:48.038Z,27.19
2022-09-06T11:46:18.659Z,27.15
2022-09-06T11:48:46.838Z,27.11
2022-09-06T11:51:13.221Z,27.26
2022-09-06T11:53:39.760Z,27.52
2022-09-06T11:56:06.172Z,27.52
2022-09-06T11:58:32.572Z,27.36
2022-09-06T12:00:58.952Z,27.46
2022-09-06T12:06:11.815Z,27.11
2022-09-06T12:08:38.222Z,25.87
2022-09-06T12:11:04.604Z,24.78
2022-09-06T12:13:30.999Z,25.46
2022-09-06T12:15:57.463Z,25.49
2022-09-06T12:18:23.979Z,25.80
2022-09-06T12:20:50.454Z,25.92
2022-09-06T12:23:16.841Z,25.95
2022-09-06T12:25:43.298Z,26.79
2022-09-06T12:28:09.678Z,26.29
2022-09-06T12:30:36.082Z,26.62
2022-09-06T12:33:02.485Z,27.04
2022-09-06T12:38:15.296Z,27.14
2022-09-06T12:40:41.803Z,27.05
2022-09-06T12:43:08.189Z,27.26
2022-09-06T12:45:34.609Z,27.55
2022-09-06T12:48:01.018Z,27.98
2022-09-06T12:50:27.423Z,28.57
2022-09-06T12:52:53.832Z,28.97
2022-09-06T12:55:20.279Z,29.41
2022-09-06T12:57:46.647Z,29.19
2022-09-06T13:00:13.057Z,29.15
2022-09-06T13:02:39.533Z,29.28
2022-09-06T13:05:06.013Z,29.41
2022-09-06T13:07:32.383Z,29.55
2022-09-06T13:09:58.800Z,29.75
2022-09-06T13:12:25.164Z,30.05
2022-09-06T13:14:51.566Z,30.09
2022-09-06T13:17:17.938Z,30.14
2022-09-06T13:19:44.339Z,30.20
2022-09-06T13:22:10.741Z,30.68
2022-09-06T13:24:37.126Z,30.29
2022-09-06T13:27:03.527Z,30.22
2022-09-06T13:29:29.910Z,30.26
2022-09-06T13:31:56.306Z,30.02
2022-09-06T13:34:22.709Z,29.91
2022-09-06T13:36:49.098Z,30.14
2022-09-06T13:39:15.492Z,30.30
2022-09-06T13:41:41.878Z,30.43
2022-09-06T13:44:08.501Z,30.73
2022-09-06T13:46:34.982Z,30.02
2022-09-06T13:49:01.428Z,30.23
2022-09-06T13:51:27.859Z,29.33
2022-09-06T13:53:54.267Z,29.41
2022-09-06T13:56:20.653Z,29.33
2022-09-06T13:58:47.324Z,29.14
2022-09-06T14:01:13.802Z,29.45
2022-09-06T14:03:40.201Z,29.53
2022-09-06T14:06:06.587Z,29.85
2022-09-06T14:08:49.565Z,29.95
2022-09-06T14:11:19.354Z,30.46
2022-09-06T14:13:45.734Z,30.91
2022-09-06T14:16:12.198Z,31.03
2022-09-06T14:18:38.610Z,31.25
2022-09-06T14:21:05.003Z,31.59
2022-09-06T14:23:31.384Z,31.57
2022-09-06T14:25:57.843Z,31.67
2022-09-06T14:28:24.340Z,31.50
2022-09-06T14:30:50.823Z,31.38
2022-09-06T14:33:17.316Z,31.13
2022-09-06T14:35:43.713Z,31.07
2022-09-06T14:38:10.124Z,31.44
2022-09-06T14:40:36.640Z,31.32
2022-09-06T14:43:03.057Z,31.33
2022-09-06T14:45:29.439Z,30.96
2022-09-06T14:47:55.819Z,30.65
2022-09-06T14:50:22.188Z,30.39
2022-09-06T14:52:48.645Z,30.24
2022-09-06T14:55:15.050Z,30.15
2022-09-06T14:57:41.426Z,29.96
2022-09-06T15:00:07.831Z,29.83
2022-09-06T15:02:34.266Z,29.54
2022-09-06T15:05:00.788Z,29.44
2022-09-06T15:07:27.204Z,29.43
2022-09-06T15:09:53.614Z,29.35
2022-09-06T15:12:20.014Z,29.28
2022-09-06T15:14:46.394Z,28.95
2022-09-06T15:17:12.775Z,28.98
2022-09-06T15:19:39.179Z,29.01
2022-09-06T15:22:05.570Z,28.95
2022-09-06T15:24:31.936Z,28.94
2022-09-06T15:26:58.339Z,28.97
2022-09-06T15:29:24.771Z,28.97
2022-09-06T15:31:51.211Z,28.91
2022-09-06T15:34:17.636Z,28.90
2022-09-06T15:36:44.690Z,28.84
2022-09-06T15:39:11.065Z,28.78
2022-09-06T15:41:37.441Z,28.64
2022-09-06T15:44:03.828Z,28.46
2022-09-06T15:46:30.297Z,28.41
2022-09-06T15:48:56.727Z,28.22
2022-09-06T15:51:23.108Z,28.11
2022-09-06T15:53:49.505Z,27.93
2022-09-06T15:56:15.872Z,27.47
2022-09-06T15:58:42.269Z,27.50
2022-09-06T16:01:08.685Z,27.12
2022-09-06T16:03:35.211Z,27.19
2022-09-06T16:08:47.986Z,26.97
2022-09-06T16:11:14.377Z,26.96
2022-09-06T16:13:40.774Z,26.69
2022-09-06T16:16:07.154Z,26.70
2022-09-06T16:18:33.568Z,26.59
2022-09-06T16:20:59.969Z,26.40
2022-09-06T16:23:26.377Z,26.39
2022-09-06T16:25:52.772Z,26.49
2022-09-06T16:28:19.161Z,26.46
2022-09-06T16:30:45.607Z,26.23
2022-09-06T16:33:12.034Z,26.22
2022-09-06T16:35:38.573Z,26.19
2022-09-06T16:38:08.582Z,26.15
2022-09-06T16:40:35.460Z,26.12
2022-09-06T16:43:01.880Z,26.11
2022-09-06T16:45:28.289Z,26.07
2022-09-06T16:47:54.682Z,26.07
2022-09-06T16:50:21.112Z,26.04
2022-09-06T16:52:47.523Z,25.84
2022-09-06T16:55:13.942Z,25.73
2022-09-06T16:57:40.348Z,25.48
2022-09-06T17:00:06.742Z,25.34
2022-09-06T17:02:33.171Z,25.13
2022-09-06T17:05:02.645Z,24.87
2022-09-06T17:07:29.036Z,24.58
2022-09-06T17:09:55.412Z,24.39
2022-09-06T17:12:21.796Z,24.32
2022-09-06T17:14:48.194Z,24.17
2022-09-06T17:17:14.797Z,24.24
2022-09-06T17:19:41.262Z,24.13
2022-09-06T17:22:07.643Z,24.02
2022-09-06T17:24:34.080Z,24.04
2022-09-06T17:27:00.462Z,24.07
2022-09-06T17:29:26.851Z,24.05
2022-09-06T17:31:53.241Z,23.90
2022-09-06T17:34:19.790Z,23.90
2022-09-06T17:36:46.164Z,23.93
2022-09-06T17:39:12.579Z,23.80
2022-09-06T17:41:38.986Z,23.72
2022-09-06T17:44:05.405Z,23.82
2022-09-06T17:46:31.950Z,23.89
2022-09-06T17:48:58.383Z,23.90
2022-09-06T17:51:24.771Z,23.91
2022-09-06T17:53:51.207Z,23.94
2022-09-06T17:56:17.586Z,24.07
2022-09-06T17:58:43.959Z,24.13
2022-09-06T18:01:10.451Z,24.22
2022-09-06T18:03:36.907Z,24.33
2022-09-06T18:06:03.306Z,24.47
2022-09-06T18:08:29.746Z,24.58
2022-09-06T18:10:56.247Z,24.59
2022-09-06T18:13:22.661Z,24.67
2022-09-06T18:15:49.054Z,24.57
2022-09-06T18:18:15.441Z,24.65
2022-09-06T18:20:41.843Z,24.41
2022-09-06T18:23:08.257Z,24.40
2022-09-06T18:25:34.635Z,24.50
2022-09-06T18:28:01.052Z,24.52
2022-09-06T18:30:29.753Z,24.44
2022-09-06T18:32:56.146Z,24.22
2022-09-06T18:35:22.520Z,24.09
2022-09-06T18:37:48.915Z,24.07
2022-09-06T18:40:15.376Z,23.94
2022-09-06T18:42:41.876Z,23.78
2022-09-06T18:45:08.264Z,23.90
2022-09-06T18:47:34.685Z,23.94
2022-09-06T18:50:01.084Z,23.96
2022-09-06T18:52:27.475Z,23.88
2022-09-06T18:54:53.904Z,23.92
2022-09-06T18:57:20.291Z,23.90
2022-09-06T18:59:46.694Z,23.88
2022-09-06T19:02:13.163Z,23.89
2022-09-06T19:04:39.704Z,23.95
2022-09-06T19:07:06.325Z,24.02
2022-09-06T19:09:32.710Z,23.90
2022-09-06T19:11:59.128Z,23.99
2022-09-06T19:14:26.685Z,24.11
2022-09-06T19:16:53.123Z,24.26
2022-09-06T19:19:19.564Z,24.24
2022-09-06T19:21:45.952Z,24.46
2022-09-06T19:24:12.353Z,24.42
2022-09-06T19:26:38.825Z,24.34
2022-09-06T19:29:05.231Z,24.24
2022-09-06T19:31:31.669Z,24.13
2022-09-06T19:33:58.122Z,24.25
2022-09-06T19:36:24.516Z,24.24
2022-09-06T19:39:03.226Z,24.38
2022-09-06T19:41:30.715Z,24.31
2022-09-06T19:43:57.277Z,24.26
2022-09-06T19:46:23.712Z,24.31
2022-09-06T19:48:50.124Z,24.27
2022-09-06T19:51:16.546Z,24.16
2022-09-06T19:53:42.937Z,24.08
2022-09-06T19:56:09.340Z,23.64
2022-09-06T19:58:35.749Z,23.47
2022-09-06T20:01:02.232Z,23.64
2022-09-06T20:03:28.704Z,23.60
2022-09-06T20:05:55.111Z,23.73
2022-09-06T20:08:21.520Z,23.48
2022-09-06T20:10:47.893Z,23.58
2022-09-06T20:13:14.330Z,23.28
2022-09-06T20:15:40.745Z,23.13
2022-09-06T20:18:07.142Z,23.45
2022-09-06T20:20:33.525Z,23.59
2022-09-06T20:22:59.897Z,23.51
2022-09-06T20:25:26.323Z,23.65
2022-09-06T20:27:52.727Z,23.88
2022-09-06T20:30:19.177Z,24.02
2022-09-06T20:32:45.574Z,24.10
2022-09-06T20:35:11.981Z,24.01
2022-09-06T20:37:38.389Z,24.09
2022-09-06T20:40:04.827Z,24.11
2022-09-06T20:42:31.320Z,24.22
2022-09-06T20:44:57.868Z,24.20
2022-09-06T20:47:24.259Z,24.17
2022-09-06T20:49:50.648Z,24.08
2022-09-06T20:52:17.042Z,24.17
2022-09-06T20:54:43.440Z,24.18
2022-09-06T20:57:09.831Z,24.20
2022-09-06T20:59:36.218Z,24.14
2022-09-06T21:02:02.686Z,24.11
2022-09-06T21:04:29.109Z,24.07
2022-09-06T21:06:55.481Z,24.19
2022-09-06T21:09:21.883Z,24.23
2022-09-06T21:11:48.310Z,24.15
2022-09-06T21:14:14.722Z,24.10
2022-09-06T21:16:41.155Z,24.11
2022-09-06T21:19:07.692Z,24.07
2022-09-06T21:21:34.060Z,23.86
2022-09-06T21:24:00.442Z,23.91
2022-09-06T21:26:26.890Z,23.85
2022-09-06T21:28:53.390Z,23.84
2022-09-06T21:31:19.893Z,23.91
2022-09-06T21:33:46.330Z,23.84
2022-09-06T21:36:12.728Z,23.93
2022-09-06T21:38:39.114Z,23.85
2022-09-06T21:41:05.561Z,23.92
2022-09-06T21:43:31.959Z,23.73
2022-09-06T21:45:58.350Z,23.83
2022-09-06T21:48:24.882Z,23.67
2022-09-06T21:50:51.315Z,23.60
2022-09-06T21:53:17.695Z,23.65
2022-09-06T21:55:44.075Z,23.80
2022-09-06T21:58:10.460Z,23.84
2022-09-06T22:00:36.873Z,23.73
2022-09-06T22:03:03.351Z,23.83
2022-09-06T22:05:29.753Z,23.75
2022-09-06T22:07:56.139Z,23.84
2022-09-06T22:10:22.521Z,23.80
2022-09-06T22:12:48.898Z,23.82
2022-09-06T22:15:15.349Z,23.82
2022-09-06T22:17:41.782Z,23.85
2022-09-06T22:20:08.168Z,23.84
2022-09-06T22:22:34.579Z,23.88
2022-09-06T22:25:00.976Z,23.83
2022-09-06T22:27:27.396Z,23.97
2022-09-06T22:29:53.785Z,23.92
2022-09-06T22:32:20.215Z,23.97
2022-09-06T22:34:46.602Z,24.06
2022-09-06T22:37:13.040Z,24.03
2022-09-06T22:39:39.471Z,24.02
2022-09-06T22:42:05.886Z,23.86
2022-09-06T22:44:32.298Z,23.64
2022-09-06T22:46:58.722Z,23.65
2022-09-06T22:49:25.162Z,23.87
2022-09-06T22:51:51.536Z,23.86
2022-09-06T22:54:17.935Z,23.90
2022-09-06T22:56:44.310Z,23.88
2022-09-06T22:59:10.745Z,23.82
2022-09-06T23:01:37.140Z,23.76
2022-09-06T23:04:03.529Z,23.78
2022-09-06T23:06:29.930Z,23.85
2022-09-06T23:08:56.314Z,23.64
2022-09-06T23:11:22.714Z,23.42
2022-09-06T23:13:49.098Z,23.33
2022-09-06T23:16:15.572Z,23.11
2022-09-06T23:18:42.069Z,23.16
2022-09-06T23:21:08.530Z,22.94
2022-09-06T23:23:34.928Z,22.96
2022-09-06T23:26:01.309Z,22.95
2022-09-06T23:28:27.724Z,22.64
2022-09-06T23:30:54.168Z,22.66
2022-09-06T23:33:20.574Z,22.62
2022-09-06T23:35:46.960Z,22.60
2022-09-06T23:38:13.347Z,22.64
2022-09-06T23:40:39.727Z,22.76
2022-09-06T23:43:06.129Z,22.69
2022-09-06T23:45:32.519Z,22.75
2022-09-06T23:47:58.906Z,22.81
2022-09-06T23:50:25.300Z,22.82
2022-09-06T23:52:51.725Z,22.91
2022-09-06T23:55:18.142Z,22.96
2022-09-06T23:57:44.525Z,23.04
